FDX430 KICT-KMEM
Flight info
| Callsign | FDX430 |
|---|---|
| Flight time | 1h 0m |
| Altitude | 35000 |
| Route | RZC BRBBQ3 |
| Aircraft | MD11/H-SDE1E2E3FGHIJ2J3J4J5M1RWXY/LB1D1 |
Departure
| Time | 2026-04-21 21:42 |
|---|---|
| Airport | Wichita Dwight D. Eisenhower National Airport (KICT) |
Arrival
| Time | 2026-04-21 22:42 |
|---|---|
| Airport | Memphis International Airport (KMEM) |
| Time | Latitude | Longitude | Altitude | Speed | Heading |
|---|---|---|---|---|---|
| 2026-04-21 21:23 | 37.65801 | -97.43246 | 1337 ft | 0 kts | 110° |
| 2026-04-21 21:34 | 37.65801 | -97.43247 | 1337 ft | 2 kts | 110° |
| 2026-04-21 21:34 | 37.65804 | -97.43268 | 1337 ft | 2 kts | 81° |
| 2026-04-21 21:34 | 37.65798 | -97.43287 | 1340 ft | 2 kts | 45° |
| 2026-04-21 21:34 | 37.65786 | -97.43299 | 1343 ft | 2 kts | 25° |
| 2026-04-21 21:35 | 37.65774 | -97.43306 | 1339 ft | 1 kts | 19° |
| 2026-04-21 21:35 | 37.65772 | -97.43307 | 1339 ft | 0 kts | 18° |
| 2026-04-21 21:39 | 37.65772 | -97.43306 | 1336 ft | 1 kts | 18° |
| 2026-04-21 21:39 | 37.65811 | -97.43290 | 1336 ft | 11 kts | 18° |
| 2026-04-21 21:39 | 37.65870 | -97.43287 | 1337 ft | 6 kts | 328° |
| 2026-04-21 21:40 | 37.65907 | -97.43331 | 1338 ft | 9 kts | 325° |
| 2026-04-21 21:40 | 37.65980 | -97.43319 | 1344 ft | 14 kts | 19° |
| 2026-04-21 21:40 | 37.66078 | -97.43280 | 1344 ft | 12 kts | 5° |
| 2026-04-21 21:40 | 37.66124 | -97.43313 | 1344 ft | 7 kts | 306° |
| 2026-04-21 21:41 | 37.66131 | -97.43370 | 1344 ft | 8 kts | 259° |
| 2026-04-21 21:41 | 37.66081 | -97.43425 | 1344 ft | 11 kts | 203° |
| 2026-04-21 21:41 | 37.65955 | -97.43482 | 1344 ft | 48 kts | 199° |
| 2026-04-21 21:41 | 37.65350 | -97.43756 | 1343 ft | 133 kts | 200° |
| 2026-04-21 21:42 | 37.64344 | -97.44208 | 1799 ft | 155 kts | 200° |
| 2026-04-21 21:42 | 37.63334 | -97.44708 | 2833 ft | 157 kts | 200° |
| 2026-04-21 21:42 | 37.62325 | -97.45238 | 3779 ft | 157 kts | 201° |
| 2026-04-21 21:42 | 37.61243 | -97.45538 | 4537 ft | 168 kts | 177° |
| 2026-04-21 21:43 | 37.60058 | -97.44909 | 4790 ft | 208 kts | 146° |
| 2026-04-21 21:43 | 37.59144 | -97.43317 | 4948 ft | 240 kts | 123° |
| 2026-04-21 21:43 | 37.58405 | -97.41300 | 5090 ft | 266 kts | 118° |
| 2026-04-21 21:43 | 37.57650 | -97.39131 | 5688 ft | 272 kts | 120° |
| 2026-04-21 21:44 | 37.56883 | -97.36962 | 6421 ft | 277 kts | 120° |
| 2026-04-21 21:44 | 37.56077 | -97.34741 | 7136 ft | 280 kts | 120° |
| 2026-04-21 21:44 | 37.55246 | -97.32499 | 7865 ft | 284 kts | 117° |
| 2026-04-21 21:44 | 37.54401 | -97.30247 | 8644 ft | 286 kts | 117° |
| 2026-04-21 21:45 | 37.53539 | -97.27972 | 9399 ft | 289 kts | 116° |
| 2026-04-21 21:45 | 37.52665 | -97.25678 | 10134 ft | 295 kts | 115° |
| 2026-04-21 21:45 | 37.51734 | -97.23244 | 10291 ft | 322 kts | 115° |
| 2026-04-21 21:45 | 37.50719 | -97.20601 | 10422 ft | 348 kts | 115° |
| 2026-04-21 21:46 | 37.49632 | -97.17780 | 10811 ft | 363 kts | 115° |
| 2026-04-21 21:46 | 37.48520 | -97.14902 | 11625 ft | 367 kts | 115° |
| 2026-04-21 21:46 | 37.47397 | -97.12000 | 12430 ft | 371 kts | 114° |
| 2026-04-21 21:46 | 37.46262 | -97.09076 | 13290 ft | 373 kts | 113° |
| 2026-04-21 21:47 | 37.45117 | -97.06124 | 14067 ft | 377 kts | 114° |
| 2026-04-21 21:47 | 37.43956 | -97.03135 | 14703 ft | 383 kts | 113° |
| 2026-04-21 21:47 | 37.42776 | -97.00099 | 15329 ft | 389 kts | 113° |
| 2026-04-21 21:47 | 37.41578 | -96.97021 | 15924 ft | 395 kts | 113° |
| 2026-04-21 21:48 | 37.40359 | -96.93892 | 16541 ft | 400 kts | 115° |
| 2026-04-21 21:48 | 37.39124 | -96.90727 | 17190 ft | 405 kts | 114° |
| 2026-04-21 21:48 | 37.37875 | -96.87529 | 17863 ft | 410 kts | 115° |
| 2026-04-21 21:48 | 37.36624 | -96.84332 | 18468 ft | 415 kts | 115° |
| 2026-04-21 21:49 | 37.35333 | -96.81036 | 18908 ft | 423 kts | 114° |
| 2026-04-21 21:49 | 37.34028 | -96.77703 | 19482 ft | 425 kts | 115° |
| 2026-04-21 21:49 | 37.32718 | -96.74363 | 20039 ft | 429 kts | 115° |
| 2026-04-21 21:49 | 37.31389 | -96.70980 | 20504 ft | 436 kts | 114° |
| 2026-04-21 21:50 | 37.30038 | -96.67543 | 21051 ft | 441 kts | 114° |
| 2026-04-21 21:50 | 37.28678 | -96.64084 | 21726 ft | 441 kts | 114° |
| 2026-04-21 21:50 | 37.27314 | -96.60620 | 22375 ft | 442 kts | 115° |
| 2026-04-21 21:50 | 37.25941 | -96.57142 | 22822 ft | 449 kts | 114° |
| 2026-04-21 21:51 | 37.24545 | -96.53607 | 23266 ft | 453 kts | 115° |
| 2026-04-21 21:51 | 37.23143 | -96.50080 | 23985 ft | 452 kts | 115° |
| 2026-04-21 21:51 | 37.21717 | -96.46517 | 24321 ft | 458 kts | 115° |
| 2026-04-21 21:51 | 37.20285 | -96.42937 | 24871 ft | 460 kts | 115° |
| 2026-04-21 21:52 | 37.18847 | -96.39337 | 25207 ft | 467 kts | 115° |
| 2026-04-21 21:52 | 37.17393 | -96.35687 | 25666 ft | 467 kts | 115° |
| 2026-04-21 21:52 | 37.15944 | -96.32045 | 26169 ft | 469 kts | 114° |
| 2026-04-21 21:52 | 37.14495 | -96.28405 | 26530 ft | 472 kts | 115° |
| 2026-04-21 21:53 | 37.13017 | -96.24697 | 26857 ft | 479 kts | 114° |
| 2026-04-21 21:53 | 37.11524 | -96.20953 | 27285 ft | 482 kts | 114° |
| 2026-04-21 21:53 | 37.10027 | -96.17206 | 27926 ft | 480 kts | 115° |
| 2026-04-21 21:53 | 37.08528 | -96.13458 | 28290 ft | 483 kts | 115° |
| 2026-04-21 21:54 | 37.07015 | -96.09677 | 28632 ft | 486 kts | 114° |
| 2026-04-21 21:54 | 37.05491 | -96.05872 | 29070 ft | 488 kts | 116° |
| 2026-04-21 21:54 | 37.03966 | -96.02076 | 29561 ft | 489 kts | 115° |
| 2026-04-21 21:54 | 37.02432 | -95.98260 | 29965 ft | 493 kts | 114° |
| 2026-04-21 21:55 | 37.00883 | -95.94409 | 30272 ft | 496 kts | 115° |
| 2026-04-21 21:55 | 36.99322 | -95.90536 | 30521 ft | 500 kts | 115° |
| 2026-04-21 21:55 | 36.97762 | -95.86667 | 31055 ft | 496 kts | 115° |
| 2026-04-21 21:55 | 36.96211 | -95.82830 | 31510 ft | 495 kts | 114° |
| 2026-04-21 21:56 | 36.94658 | -95.78988 | 32022 ft | 493 kts | 114° |
| 2026-04-21 21:56 | 36.93116 | -95.75178 | 32614 ft | 489 kts | 115° |
| 2026-04-21 21:56 | 36.91601 | -95.71440 | 33122 ft | 487 kts | 114° |
| 2026-04-21 21:56 | 36.90075 | -95.67677 | 33571 ft | 485 kts | 114° |
| 2026-04-21 21:57 | 36.88549 | -95.63921 | 33989 ft | 483 kts | 114° |
| 2026-04-21 21:57 | 36.87030 | -95.60184 | 34367 ft | 482 kts | 114° |
| 2026-04-21 21:57 | 36.85504 | -95.56458 | 34715 ft | 481 kts | 115° |
| 2026-04-21 21:57 | 36.83971 | -95.52737 | 35024 ft | 482 kts | 115° |
| 2026-04-21 21:58 | 36.82437 | -95.49012 | 35113 ft | 484 kts | 115° |
| 2026-04-21 21:58 | 36.79383 | -95.41576 | 35155 ft | 479 kts | 114° |
| 2026-04-21 21:59 | 36.76350 | -95.34177 | 35160 ft | 479 kts | 114° |
| 2026-04-21 21:59 | 36.73300 | -95.26747 | 35172 ft | 482 kts | 114° |
| 2026-04-21 22:00 | 36.70260 | -95.19361 | 35171 ft | 482 kts | 114° |
| 2026-04-21 22:00 | 36.67194 | -95.11928 | 35179 ft | 482 kts | 115° |
| 2026-04-21 22:01 | 36.64127 | -95.04513 | 35185 ft | 482 kts | 114° |
| 2026-04-21 22:01 | 36.61037 | -94.97058 | 35179 ft | 487 kts | 115° |
| 2026-04-21 22:02 | 36.57906 | -94.89520 | 35178 ft | 491 kts | 116° |
| 2026-04-21 22:02 | 36.54768 | -94.81986 | 35204 ft | 491 kts | 115° |
| 2026-04-21 22:03 | 36.51614 | -94.74433 | 35204 ft | 493 kts | 116° |
| 2026-04-21 22:03 | 36.48478 | -94.66941 | 35200 ft | 490 kts | 116° |
| 2026-04-21 22:04 | 36.45281 | -94.59389 | 35210 ft | 491 kts | 116° |
| 2026-04-21 22:04 | 36.42125 | -94.51925 | 35199 ft | 491 kts | 116° |
| 2026-04-21 22:05 | 36.38941 | -94.44376 | 35194 ft | 495 kts | 117° |
| 2026-04-21 22:05 | 36.35740 | -94.36797 | 35192 ft | 495 kts | 117° |
| 2026-04-21 22:06 | 36.32543 | -94.29243 | 35191 ft | 495 kts | 117° |
| 2026-04-21 22:06 | 36.29330 | -94.21668 | 35201 ft | 497 kts | 117° |
| 2026-04-21 22:07 | 36.26112 | -94.14104 | 35220 ft | 495 kts | 117° |
| 2026-04-21 22:07 | 36.23453 | -94.06319 | 35222 ft | 494 kts | 105° |
| 2026-04-21 22:08 | 36.21997 | -93.98012 | 35218 ft | 494 kts | 99° |
| 2026-04-21 22:08 | 36.20745 | -93.89627 | 35213 ft | 494 kts | 100° |
| 2026-04-21 22:09 | 36.19399 | -93.81278 | 35209 ft | 495 kts | 101° |
| 2026-04-21 22:09 | 36.17981 | -93.72912 | 35192 ft | 499 kts | 102° |
| 2026-04-21 22:10 | 36.16530 | -93.64473 | 35194 ft | 501 kts | 102° |
| 2026-04-21 22:10 | 36.15076 | -93.56037 | 35194 ft | 501 kts | 102° |
| 2026-04-21 22:11 | 36.13628 | -93.47657 | 35190 ft | 501 kts | 102° |
| 2026-04-21 22:11 | 36.12154 | -93.39232 | 35188 ft | 501 kts | 102° |
| 2026-04-21 22:12 | 36.10669 | -93.30805 | 35185 ft | 501 kts | 102° |
| 2026-04-21 22:12 | 36.09190 | -93.22386 | 35188 ft | 501 kts | 102° |
| 2026-04-21 22:13 | 36.07720 | -93.14023 | 35182 ft | 501 kts | 102° |
| 2026-04-21 22:13 | 36.06233 | -93.05600 | 35180 ft | 501 kts | 102° |
| 2026-04-21 22:14 | 36.04738 | -92.97168 | 35183 ft | 503 kts | 102° |
| 2026-04-21 22:14 | 36.03232 | -92.88714 | 35180 ft | 503 kts | 102° |
| 2026-04-21 22:15 | 36.01719 | -92.80257 | 35184 ft | 504 kts | 103° |
| 2026-04-21 22:15 | 36.00201 | -92.71810 | 35187 ft | 503 kts | 103° |
| 2026-04-21 22:16 | 35.98676 | -92.63358 | 35187 ft | 505 kts | 103° |
| 2026-04-21 22:16 | 35.97147 | -92.54926 | 35190 ft | 507 kts | 103° |
| 2026-04-21 22:17 | 35.95602 | -92.46436 | 35189 ft | 507 kts | 103° |
| 2026-04-21 22:17 | 35.94032 | -92.37963 | 35194 ft | 503 kts | 103° |
| 2026-04-21 22:18 | 35.92486 | -92.29670 | 34972 ft | 493 kts | 103° |
| 2026-04-21 22:18 | 35.91721 | -92.25544 | 34618 ft | 496 kts | 103° |
| 2026-04-21 22:18 | 35.90953 | -92.21391 | 34087 ft | 498 kts | 103° |
| 2026-04-21 22:18 | 35.90441 | -92.18625 | 33654 ft | 499 kts | 103° |
| 2026-04-21 22:19 | 35.89669 | -92.14454 | 33055 ft | 499 kts | 103° |
| 2026-04-21 22:19 | 35.88893 | -92.10267 | 32452 ft | 501 kts | 103° |
| 2026-04-21 22:19 | 35.88113 | -92.06067 | 31865 ft | 504 kts | 104° |
| 2026-04-21 22:19 | 35.87325 | -92.01840 | 31291 ft | 507 kts | 104° |
| 2026-04-21 22:20 | 35.86532 | -91.97589 | 30698 ft | 509 kts | 104° |
| 2026-04-21 22:20 | 35.85735 | -91.93327 | 30075 ft | 512 kts | 104° |
| 2026-04-21 22:20 | 35.84931 | -91.89044 | 29420 ft | 513 kts | 104° |
| 2026-04-21 22:20 | 35.84123 | -91.84745 | 28802 ft | 515 kts | 104° |
| 2026-04-21 22:21 | 35.83314 | -91.80446 | 28191 ft | 514 kts | 104° |
| 2026-04-21 22:21 | 35.82478 | -91.76187 | 27573 ft | 508 kts | 107° |
| 2026-04-21 22:21 | 35.81362 | -91.72095 | 26964 ft | 501 kts | 112° |
| 2026-04-21 22:21 | 35.80017 | -91.68165 | 26336 ft | 494 kts | 115° |
| 2026-04-21 22:22 | 35.78582 | -91.64347 | 25704 ft | 488 kts | 116° |
| 2026-04-21 22:22 | 35.77136 | -91.60597 | 25093 ft | 482 kts | 116° |
| 2026-04-21 22:22 | 35.75711 | -91.56879 | 24495 ft | 477 kts | 116° |
| 2026-04-21 22:22 | 35.74322 | -91.53202 | 23899 ft | 471 kts | 116° |
| 2026-04-21 22:23 | 35.72966 | -91.49568 | 23232 ft | 464 kts | 115° |
| 2026-04-21 22:23 | 35.71637 | -91.45975 | 22614 ft | 458 kts | 115° |
| 2026-04-21 22:23 | 35.70326 | -91.42421 | 22013 ft | 454 kts | 115° |
| 2026-04-21 22:23 | 35.69043 | -91.38940 | 21460 ft | 450 kts | 115° |
| 2026-04-21 22:24 | 35.67758 | -91.35457 | 20975 ft | 444 kts | 115° |
| 2026-04-21 22:24 | 35.66491 | -91.32029 | 20756 ft | 435 kts | 115° |
| 2026-04-21 22:24 | 35.65264 | -91.28715 | 20417 ft | 419 kts | 115° |
| 2026-04-21 22:24 | 35.64057 | -91.25482 | 19855 ft | 413 kts | 115° |
| 2026-04-21 22:25 | 35.62863 | -91.22297 | 19276 ft | 408 kts | 114° |
| 2026-04-21 22:25 | 35.61677 | -91.19135 | 18714 ft | 404 kts | 114° |
| 2026-04-21 22:25 | 35.60511 | -91.16024 | 18091 ft | 400 kts | 114° |
| 2026-04-21 22:25 | 35.59355 | -91.12933 | 17485 ft | 397 kts | 115° |
| 2026-04-21 22:26 | 35.58204 | -91.09858 | 16911 ft | 394 kts | 115° |
| 2026-04-21 22:26 | 35.57070 | -91.06829 | 16354 ft | 387 kts | 116° |
| 2026-04-21 22:26 | 35.55945 | -91.03827 | 15676 ft | 386 kts | 116° |
| 2026-04-21 22:26 | 35.54833 | -91.00864 | 15071 ft | 378 kts | 116° |
| 2026-04-21 22:27 | 35.53743 | -90.97962 | 14531 ft | 370 kts | 117° |
| 2026-04-21 22:27 | 35.52680 | -90.95130 | 14012 ft | 361 kts | 116° |
| 2026-04-21 22:27 | 35.51637 | -90.92358 | 13462 ft | 356 kts | 116° |
| 2026-04-21 22:27 | 35.50612 | -90.89620 | 12952 ft | 352 kts | 117° |
| 2026-04-21 22:28 | 35.49636 | -90.86864 | 12515 ft | 352 kts | 115° |
| 2026-04-21 22:28 | 35.48712 | -90.84145 | 12033 ft | 346 kts | 115° |
| 2026-04-21 22:28 | 35.47803 | -90.81426 | 11556 ft | 342 kts | 116° |
| 2026-04-21 22:28 | 35.46909 | -90.78745 | 11152 ft | 337 kts | 116° |
| 2026-04-21 22:29 | 35.46023 | -90.76087 | 10771 ft | 336 kts | 116° |
| 2026-04-21 22:29 | 35.45143 | -90.73453 | 10514 ft | 329 kts | 116° |
| 2026-04-21 22:29 | 35.44303 | -90.70930 | 10369 ft | 310 kts | 116° |
| 2026-04-21 22:29 | 35.43513 | -90.68557 | 10235 ft | 292 kts | 117° |
| 2026-04-21 22:30 | 35.42770 | -90.66325 | 10108 ft | 271 kts | 117° |
| 2026-04-21 22:30 | 35.42050 | -90.64171 | 10002 ft | 273 kts | 117° |
| 2026-04-21 22:30 | 35.41346 | -90.62021 | 9978 ft | 273 kts | 117° |
| 2026-04-21 22:30 | 35.40644 | -90.59862 | 9957 ft | 272 kts | 117° |
| 2026-04-21 22:31 | 35.39944 | -90.57697 | 9971 ft | 273 kts | 117° |
| 2026-04-21 22:31 | 35.39256 | -90.55565 | 9970 ft | 272 kts | 117° |
| 2026-04-21 22:31 | 35.38559 | -90.53405 | 9974 ft | 272 kts | 117° |
| 2026-04-21 22:31 | 35.37863 | -90.51248 | 9957 ft | 272 kts | 117° |
| 2026-04-21 22:32 | 35.37162 | -90.49076 | 9717 ft | 276 kts | 117° |
| 2026-04-21 22:32 | 35.36464 | -90.46911 | 9202 ft | 271 kts | 117° |
| 2026-04-21 22:32 | 35.35774 | -90.44770 | 8690 ft | 269 kts | 117° |
| 2026-04-21 22:32 | 35.35088 | -90.42644 | 8187 ft | 268 kts | 117° |
| 2026-04-21 22:33 | 35.34406 | -90.40532 | 7685 ft | 266 kts | 117° |
| 2026-04-21 22:33 | 35.33727 | -90.38430 | 7204 ft | 265 kts | 117° |
| 2026-04-21 22:33 | 35.33050 | -90.36339 | 6723 ft | 263 kts | 117° |
| 2026-04-21 22:33 | 35.32379 | -90.34265 | 6227 ft | 261 kts | 117° |
| 2026-04-21 22:34 | 35.31708 | -90.32199 | 5723 ft | 260 kts | 116° |
| 2026-04-21 22:34 | 35.31044 | -90.30150 | 5258 ft | 257 kts | 116° |
| 2026-04-21 22:34 | 35.30388 | -90.28127 | 4885 ft | 255 kts | 116° |
| 2026-04-21 22:34 | 35.29757 | -90.26104 | 4492 ft | 255 kts | 109° |
| 2026-04-21 22:35 | 35.29601 | -90.23924 | 4135 ft | 259 kts | 90° |
| 2026-04-21 22:35 | 35.29739 | -90.21759 | 3988 ft | 258 kts | 88° |
| 2026-04-21 22:35 | 35.29907 | -90.19571 | 3969 ft | 259 kts | 88° |
| 2026-04-21 22:35 | 35.30069 | -90.17372 | 3949 ft | 259 kts | 88° |
| 2026-04-21 22:36 | 35.29641 | -90.13131 | 3968 ft | 251 kts | 117° |
| 2026-04-21 22:36 | 35.28950 | -90.11174 | 3966 ft | 250 kts | 118° |
| 2026-04-21 22:36 | 35.28248 | -90.09222 | 3969 ft | 250 kts | 118° |
| 2026-04-21 22:37 | 35.27549 | -90.07274 | 3969 ft | 248 kts | 118° |
| 2026-04-21 22:37 | 35.26888 | -90.05423 | 3953 ft | 228 kts | 121° |
| 2026-04-21 22:37 | 35.25935 | -90.03938 | 3961 ft | 219 kts | 144° |
| 2026-04-21 22:37 | 35.24729 | -90.02787 | 3811 ft | 220 kts | 148° |
| 2026-04-21 22:38 | 35.23507 | -90.01673 | 3566 ft | 218 kts | 148° |
| 2026-04-21 22:38 | 35.22299 | -90.00564 | 3267 ft | 215 kts | 148° |
| 2026-04-21 22:38 | 35.21108 | -89.99482 | 3020 ft | 212 kts | 154° |
| 2026-04-21 22:38 | 35.19744 | -89.99009 | 2977 ft | 204 kts | 181° |
| 2026-04-21 22:39 | 35.18314 | -89.98994 | 2857 ft | 205 kts | 183° |
| 2026-04-21 22:39 | 35.16889 | -89.98982 | 2611 ft | 204 kts | 182° |
| 2026-04-21 22:39 | 35.15557 | -89.98956 | 2331 ft | 178 kts | 182° |
| 2026-04-21 22:39 | 35.14373 | -89.98932 | 2114 ft | 169 kts | 182° |
| 2026-04-21 22:40 | 35.13187 | -89.98911 | 1901 ft | 171 kts | 183° |
| 2026-04-21 22:40 | 35.11995 | -89.98888 | 1687 ft | 171 kts | 183° |
| 2026-04-21 22:40 | 35.10853 | -89.98868 | 1455 ft | 157 kts | 182° |
| 2026-04-21 22:40 | 35.09756 | -89.98844 | 1248 ft | 158 kts | 182° |
| 2026-04-21 22:41 | 35.08640 | -89.98820 | 1074 ft | 160 kts | 181° |
| 2026-04-21 22:41 | 35.07544 | -89.98796 | 892 ft | 156 kts | 184° |
| 2026-04-21 22:41 | 35.06453 | -89.98777 | 640 ft | 159 kts | 183° |
| 2026-04-21 22:41 | 35.05329 | -89.98755 | 457 ft | 157 kts | 180° |
| 2026-04-21 22:42 | 35.04305 | -89.98730 | 334 ft | 129 kts | 179° |
| 2026-04-21 22:42 | 35.03622 | -89.98715 | 336 ft | 71 kts | 179° |
| 2026-04-21 22:42 | 35.03254 | -89.98686 | 336 ft | 40 kts | 166° |
| 2026-04-21 22:42 | 35.03140 | -89.98625 | 333 ft | 8 kts | 148° |
| 2026-04-21 22:43 | 35.03102 | -89.98591 | 335 ft | 1 kts | 137° |
| 2026-04-21 22:43 | 35.03099 | -89.98586 | 335 ft | 2 kts | 137° |
| 2026-04-21 22:43 | 35.03077 | -89.98550 | 333 ft | 6 kts | 119° |
| 2026-04-21 22:43 | 35.03068 | -89.98507 | 336 ft | 4 kts | 84° |
| 2026-04-21 22:44 | 35.03084 | -89.98482 | 335 ft | 5 kts | 38° |
| 2026-04-21 22:44 | 35.03141 | -89.98472 | 335 ft | 11 kts | 360° |
| 2026-04-21 22:44 | 35.03221 | -89.98473 | 335 ft | 12 kts | 359° |
| 2026-04-21 22:44 | 35.03317 | -89.98475 | 335 ft | 17 kts | 359° |
| 2026-04-21 22:45 | 35.03449 | -89.98478 | 335 ft | 18 kts | 359° |
| 2026-04-21 22:45 | 35.03585 | -89.98481 | 336 ft | 20 kts | 359° |
| 2026-04-21 22:45 | 35.03724 | -89.98487 | 335 ft | 20 kts | 356° |
| 2026-04-21 22:45 | 35.03863 | -89.98492 | 335 ft | 20 kts | 359° |
| 2026-04-21 22:46 | 35.04003 | -89.98495 | 335 ft | 20 kts | 359° |
| 2026-04-21 22:46 | 35.04147 | -89.98498 | 335 ft | 21 kts | 359° |
| 2026-04-21 22:46 | 35.04294 | -89.98500 | 335 ft | 21 kts | 359° |
| 2026-04-21 22:46 | 35.04443 | -89.98503 | 335 ft | 22 kts | 359° |
| 2026-04-21 22:47 | 35.04594 | -89.98506 | 335 ft | 22 kts | 359° |
| 2026-04-21 22:47 | 35.04747 | -89.98510 | 336 ft | 22 kts | 359° |
| 2026-04-21 22:47 | 35.04901 | -89.98513 | 336 ft | 22 kts | 359° |
| 2026-04-21 22:47 | 35.05058 | -89.98514 | 335 ft | 23 kts | 1° |
| 2026-04-21 22:48 | 35.05220 | -89.98512 | 335 ft | 23 kts | 0° |
| 2026-04-21 22:48 | 35.05379 | -89.98510 | 335 ft | 23 kts | 0° |
| 2026-04-21 22:48 | 35.05541 | -89.98509 | 335 ft | 23 kts | 0° |
| 2026-04-21 22:48 | 35.05705 | -89.98507 | 335 ft | 24 kts | 0° |
| 2026-04-21 22:49 | 35.05874 | -89.98506 | 334 ft | 24 kts | 358° |
| 2026-04-21 22:49 | 35.05990 | -89.98514 | 335 ft | 11 kts | 7° |
| 2026-04-21 22:49 | 35.06026 | -89.98456 | 333 ft | 8 kts | 85° |
| 2026-04-21 22:49 | 35.06023 | -89.98386 | 334 ft | 9 kts | 92° |
| 2026-04-21 22:50 | 35.06019 | -89.98276 | 335 ft | 19 kts | 92° |
| 2026-04-21 22:50 | 35.06014 | -89.98078 | 338 ft | 24 kts | 91° |
| 2026-04-21 22:50 | 35.06008 | -89.97878 | 336 ft | 23 kts | 92° |
| 2026-04-21 22:50 | 35.06042 | -89.97790 | 334 ft | 10 kts | 20° |
| 2026-04-21 22:51 | 35.06143 | -89.97787 | 336 ft | 20 kts | 359° |
| 2026-04-21 22:51 | 35.06281 | -89.97788 | 335 ft | 13 kts | 359° |
| 2026-04-21 22:51 | 35.06324 | -89.97766 | 333 ft | 2 kts | 56° |
| 2026-04-21 22:51 | 35.06326 | -89.97731 | 334 ft | 8 kts | 91° |
| 2026-04-21 22:52 | 35.06326 | -89.97706 | 333 ft | 0 kts | 89° |